sensor_id;sensor_type;location;lat;lon;timestamp;P1;durP1;ratioP1;P2;durP2;ratioP2
21170;SDS011;10743;52.160;20.910;2023-07-31T00:01:23;1.90;;;1.73;;
21170;SDS011;10743;52.160;20.910;2023-07-31T00:03:51;4.68;;;2.08;;
21170;SDS011;10743;52.160;20.910;2023-07-31T00:06:18;4.38;;;1.85;;
21170;SDS011;10743;52.160;20.910;2023-07-31T00:08:45;2.72;;;2.10;;
21170;SDS011;10743;52.160;20.910;2023-07-31T00:11:12;2.13;;;1.70;;
21170;SDS011;10743;52.160;20.910;2023-07-31T00:13:39;6.57;;;1.80;;
21170;SDS011;10743;52.160;20.910;2023-07-31T00:16:06;4.03;;;1.80;;
21170;SDS011;10743;52.160;20.910;2023-07-31T00:18:34;6.00;;;2.20;;
21170;SDS011;10743;52.160;20.910;2023-07-31T00:21:01;3.25;;;1.98;;
21170;SDS011;10743;52.160;20.910;2023-07-31T00:23:28;4.07;;;2.10;;
21170;SDS011;10743;52.160;20.910;2023-07-31T00:25:55;8.15;;;1.77;;
21170;SDS011;10743;52.160;20.910;2023-07-31T00:28:22;3.58;;;2.03;;
21170;SDS011;10743;52.160;20.910;2023-07-31T00:30:49;6.07;;;1.73;;
21170;SDS011;10743;52.160;20.910;2023-07-31T00:33:16;2.72;;;1.70;;
21170;SDS011;10743;52.160;20.910;2023-07-31T00:35:44;3.95;;;1.92;;
21170;SDS011;10743;52.160;20.910;2023-07-31T00:38:11;3.03;;;1.83;;
21170;SDS011;10743;52.160;20.910;2023-07-31T00:40:38;4.13;;;1.70;;
21170;SDS011;10743;52.160;20.910;2023-07-31T00:43:06;2.10;;;1.70;;
21170;SDS011;10743;52.160;20.910;2023-07-31T00:45:34;6.13;;;2.00;;
21170;SDS011;10743;52.160;20.910;2023-07-31T00:48:01;3.17;;;1.80;;
21170;SDS011;10743;52.160;20.910;2023-07-31T00:50:29;4.80;;;2.08;;
21170;SDS011;10743;52.160;20.910;2023-07-31T00:52:57;3.75;;;1.67;;
21170;SDS011;10743;52.160;20.910;2023-07-31T00:55:24;3.92;;;1.83;;
21170;SDS011;10743;52.160;20.910;2023-07-31T00:57:52;4.32;;;1.80;;
21170;SDS011;10743;52.160;20.910;2023-07-31T01:00:22;3.50;;;1.88;;
21170;SDS011;10743;52.160;20.910;2023-07-31T01:02:49;2.38;;;1.85;;
21170;SDS011;10743;52.160;20.910;2023-07-31T01:05:25;4.72;;;1.83;;
21170;SDS011;10743;52.160;20.910;2023-07-31T01:08:18;2.50;;;2.00;;
21170;SDS011;10743;52.160;20.910;2023-07-31T01:10:56;4.45;;;1.90;;
21170;SDS011;10743;52.160;20.910;2023-07-31T01:13:35;4.00;;;1.70;;
21170;SDS011;10743;52.160;20.910;2023-07-31T01:16:02;5.43;;;1.67;;
21170;SDS011;10743;52.160;20.910;2023-07-31T01:18:30;5.78;;;1.75;;
21170;SDS011;10743;52.160;20.910;2023-07-31T01:21:01;2.70;;;1.70;;
21170;SDS011;10743;52.160;20.910;2023-07-31T01:24:05;3.25;;;1.90;;
21170;SDS011;10743;52.160;20.910;2023-07-31T01:26:44;4.50;;;1.90;;
21170;SDS011;10743;52.160;20.910;2023-07-31T01:32:16;4.07;;;1.60;;
21170;SDS011;10743;52.160;20.910;2023-07-31T01:34:44;2.78;;;1.90;;
21170;SDS011;10743;52.160;20.910;2023-07-31T01:37:13;3.05;;;1.95;;
21170;SDS011;10743;52.160;20.910;2023-07-31T01:39:40;5.00;;;2.00;;
21170;SDS011;10743;52.160;20.910;2023-07-31T01:42:07;2.97;;;2.00;;
21170;SDS011;10743;52.160;20.910;2023-07-31T01:44:34;3.22;;;1.85;;
21170;SDS011;10743;52.160;20.910;2023-07-31T01:47:03;3.00;;;1.90;;
21170;SDS011;10743;52.160;20.910;2023-07-31T01:49:31;6.85;;;2.05;;
21170;SDS011;10743;52.160;20.910;2023-07-31T01:51:59;7.72;;;1.70;;
21170;SDS011;10743;52.160;20.910;2023-07-31T01:54:26;4.00;;;1.98;;
21170;SDS011;10743;52.160;20.910;2023-07-31T01:56:53;5.63;;;2.40;;
21170;SDS011;10743;52.160;20.910;2023-07-31T01:59:20;2.60;;;2.00;;
21170;SDS011;10743;52.160;20.910;2023-07-31T02:01:48;3.40;;;2.10;;
21170;SDS011;10743;52.160;20.910;2023-07-31T02:04:18;5.38;;;1.98;;
21170;SDS011;10743;52.160;20.910;2023-07-31T02:06:45;2.72;;;2.13;;
21170;SDS011;10743;52.160;20.910;2023-07-31T02:09:12;3.55;;;2.33;;
21170;SDS011;10743;52.160;20.910;2023-07-31T02:11:39;3.20;;;2.15;;
21170;SDS011;10743;52.160;20.910;2023-07-31T02:14:06;5.15;;;1.92;;
21170;SDS011;10743;52.160;20.910;2023-07-31T02:16:33;3.90;;;2.10;;
21170;SDS011;10743;52.160;20.910;2023-07-31T02:19:00;3.42;;;2.10;;
21170;SDS011;10743;52.160;20.910;2023-07-31T02:21:27;6.95;;;2.08;;
21170;SDS011;10743;52.160;20.910;2023-07-31T02:23:54;3.65;;;2.00;;
21170;SDS011;10743;52.160;20.910;2023-07-31T02:26:21;2.58;;;2.10;;
21170;SDS011;10743;52.160;20.910;2023-07-31T02:28:48;5.70;;;2.28;;
21170;SDS011;10743;52.160;20.910;2023-07-31T02:31:15;4.65;;;2.42;;
21170;SDS011;10743;52.160;20.910;2023-07-31T02:33:45;5.20;;;2.47;;
21170;SDS011;10743;52.160;20.910;2023-07-31T02:36:12;2.30;;;2.10;;
21170;SDS011;10743;52.160;20.910;2023-07-31T02:38:40;4.88;;;2.35;;
21170;SDS011;10743;52.160;20.910;2023-07-31T02:41:08;6.10;;;2.53;;
21170;SDS011;10743;52.160;20.910;2023-07-31T02:43:35;5.65;;;2.42;;
21170;SDS011;10743;52.160;20.910;2023-07-31T02:46:02;4.70;;;2.58;;
21170;SDS011;10743;52.160;20.910;2023-07-31T02:48:29;8.90;;;2.55;;
21170;SDS011;10743;52.160;20.910;2023-07-31T02:50:56;6.05;;;2.42;;
21170;SDS011;10743;52.160;20.910;2023-07-31T02:53:23;5.53;;;2.47;;
21170;SDS011;10743;52.160;20.910;2023-07-31T02:55:50;6.70;;;2.67;;
21170;SDS011;10743;52.160;20.910;2023-07-31T02:58:17;4.70;;;2.53;;
21170;SDS011;10743;52.160;20.910;2023-07-31T03:00:44;5.45;;;2.67;;
21170;SDS011;10743;52.160;20.910;2023-07-31T03:03:12;3.58;;;2.15;;
21170;SDS011;10743;52.160;20.910;2023-07-31T03:05:39;2.83;;;2.50;;
21170;SDS011;10743;52.160;20.910;2023-07-31T03:08:06;6.32;;;2.60;;
21170;SDS011;10743;52.160;20.910;2023-07-31T03:10:33;4.63;;;2.33;;
21170;SDS011;10743;52.160;20.910;2023-07-31T03:13:00;7.97;;;2.67;;
21170;SDS011;10743;52.160;20.910;2023-07-31T03:15:27;6.88;;;2.35;;
21170;SDS011;10743;52.160;20.910;2023-07-31T03:17:54;6.35;;;2.67;;
21170;SDS011;10743;52.160;20.910;2023-07-31T03:20:21;4.22;;;2.30;;
21170;SDS011;10743;52.160;20.910;2023-07-31T03:22:49;5.10;;;2.72;;
21170;SDS011;10743;52.160;20.910;2023-07-31T03:25:16;2.92;;;2.20;;
21170;SDS011;10743;52.160;20.910;2023-07-31T03:27:43;7.50;;;2.60;;
21170;SDS011;10743;52.160;20.910;2023-07-31T03:30:10;3.88;;;2.30;;
21170;SDS011;10743;52.160;20.910;2023-07-31T03:32:37;4.95;;;2.53;;
21170;SDS011;10743;52.160;20.910;2023-07-31T03:35:04;4.72;;;2.22;;
21170;SDS011;10743;52.160;20.910;2023-07-31T03:37:32;5.10;;;2.45;;
21170;SDS011;10743;52.160;20.910;2023-07-31T03:39:59;3.92;;;2.50;;
21170;SDS011;10743;52.160;20.910;2023-07-31T03:42:26;7.88;;;2.30;;
21170;SDS011;10743;52.160;20.910;2023-07-31T03:44:53;7.55;;;3.08;;
21170;SDS011;10743;52.160;20.910;2023-07-31T03:47:20;4.82;;;2.60;;
21170;SDS011;10743;52.160;20.910;2023-07-31T03:49:47;3.88;;;2.05;;
21170;SDS011;10743;52.160;20.910;2023-07-31T03:52:14;8.70;;;2.47;;
21170;SDS011;10743;52.160;20.910;2023-07-31T03:54:42;5.03;;;2.25;;
21170;SDS011;10743;52.160;20.910;2023-07-31T03:57:11;5.53;;;2.00;;
21170;SDS011;10743;52.160;20.910;2023-07-31T03:59:38;5.00;;;2.22;;
21170;SDS011;10743;52.160;20.910;2023-07-31T04:02:05;4.10;;;2.55;;
21170;SDS011;10743;52.160;20.910;2023-07-31T04:04:32;3.65;;;2.25;;
21170;SDS011;10743;52.160;20.910;2023-07-31T04:07:01;4.57;;;2.63;;
21170;SDS011;10743;52.160;20.910;2023-07-31T04:09:29;4.35;;;2.53;;
21170;SDS011;10743;52.160;20.910;2023-07-31T04:11:56;4.22;;;2.50;;
21170;SDS011;10743;52.160;20.910;2023-07-31T04:14:23;3.97;;;2.50;;
21170;SDS011;10743;52.160;20.910;2023-07-31T04:16:50;5.68;;;2.72;;
21170;SDS011;10743;52.160;20.910;2023-07-31T04:19:17;6.07;;;2.50;;
21170;SDS011;10743;52.160;20.910;2023-07-31T04:21:44;7.68;;;2.60;;
21170;SDS011;10743;52.160;20.910;2023-07-31T04:24:11;7.32;;;2.50;;
21170;SDS011;10743;52.160;20.910;2023-07-31T04:26:38;6.20;;;3.05;;
21170;SDS011;10743;52.160;20.910;2023-07-31T04:29:05;6.45;;;2.95;;
21170;SDS011;10743;52.160;20.910;2023-07-31T04:31:33;5.03;;;2.63;;
21170;SDS011;10743;52.160;20.910;2023-07-31T04:34:04;3.55;;;2.05;;
21170;SDS011;10743;52.160;20.910;2023-07-31T04:36:32;4.88;;;2.72;;
21170;SDS011;10743;52.160;20.910;2023-07-31T04:39:01;6.38;;;2.55;;
21170;SDS011;10743;52.160;20.910;2023-07-31T04:41:28;6.65;;;2.60;;
21170;SDS011;10743;52.160;20.910;2023-07-31T04:43:55;6.95;;;3.13;;
21170;SDS011;10743;52.160;20.910;2023-07-31T04:46:22;3.92;;;2.30;;
21170;SDS011;10743;52.160;20.910;2023-07-31T04:48:49;5.05;;;2.60;;
21170;SDS011;10743;52.160;20.910;2023-07-31T04:51:16;3.70;;;2.40;;
21170;SDS011;10743;52.160;20.910;2023-07-31T04:53:43;6.57;;;2.17;;
21170;SDS011;10743;52.160;20.910;2023-07-31T04:56:10;8.23;;;3.10;;
21170;SDS011;10743;52.160;20.910;2023-07-31T04:58:37;6.07;;;2.53;;
21170;SDS011;10743;52.160;20.910;2023-07-31T05:01:04;5.97;;;2.22;;
21170;SDS011;10743;52.160;20.910;2023-07-31T05:03:31;4.03;;;2.30;;
21170;SDS011;10743;52.160;20.910;2023-07-31T05:05:59;6.43;;;2.40;;
21170;SDS011;10743;52.160;20.910;2023-07-31T05:08:26;6.13;;;2.65;;
21170;SDS011;10743;52.160;20.910;2023-07-31T05:10:53;5.28;;;2.45;;
21170;SDS011;10743;52.160;20.910;2023-07-31T05:13:20;7.50;;;2.40;;
21170;SDS011;10743;52.160;20.910;2023-07-31T05:15:47;3.83;;;2.45;;
21170;SDS011;10743;52.160;20.910;2023-07-31T05:18:16;4.00;;;2.28;;
21170;SDS011;10743;52.160;20.910;2023-07-31T05:20:43;8.55;;;2.35;;
21170;SDS011;10743;52.160;20.910;2023-07-31T05:23:10;5.40;;;2.35;;
21170;SDS011;10743;52.160;20.910;2023-07-31T05:25:37;4.97;;;2.60;;
21170;SDS011;10743;52.160;20.910;2023-07-31T05:28:04;4.78;;;2.78;;
21170;SDS011;10743;52.160;20.910;2023-07-31T05:30:31;6.78;;;2.55;;
21170;SDS011;10743;52.160;20.910;2023-07-31T05:32:58;9.63;;;2.53;;
21170;SDS011;10743;52.160;20.910;2023-07-31T05:35:25;3.92;;;2.20;;
21170;SDS011;10743;52.160;20.910;2023-07-31T05:37:52;4.80;;;2.30;;
21170;SDS011;10743;52.160;20.910;2023-07-31T05:40:19;6.70;;;2.70;;
21170;SDS011;10743;52.160;20.910;2023-07-31T05:42:46;7.57;;;2.72;;
21170;SDS011;10743;52.160;20.910;2023-07-31T05:45:14;4.82;;;2.67;;
21170;SDS011;10743;52.160;20.910;2023-07-31T05:47:41;4.78;;;2.38;;
21170;SDS011;10743;52.160;20.910;2023-07-31T05:50:08;5.53;;;2.30;;
21170;SDS011;10743;52.160;20.910;2023-07-31T05:52:35;6.43;;;2.35;;
21170;SDS011;10743;52.160;20.910;2023-07-31T05:55:02;3.70;;;2.10;;
21170;SDS011;10743;52.160;20.910;2023-07-31T05:57:30;7.57;;;2.60;;
21170;SDS011;10743;52.160;20.910;2023-07-31T05:59:57;4.03;;;2.45;;
21170;SDS011;10743;52.160;20.910;2023-07-31T06:02:24;3.38;;;2.25;;
21170;SDS011;10743;52.160;20.910;2023-07-31T06:04:51;7.25;;;2.60;;
21170;SDS011;10743;52.160;20.910;2023-07-31T06:07:20;7.53;;;2.47;;
21170;SDS011;10743;52.160;20.910;2023-07-31T06:09:47;3.45;;;1.90;;
21170;SDS011;10743;52.160;20.910;2023-07-31T06:12:14;3.97;;;2.40;;
21170;SDS011;10743;52.160;20.910;2023-07-31T06:14:44;3.80;;;2.30;;
21170;SDS011;10743;52.160;20.910;2023-07-31T06:17:11;3.58;;;2.30;;
21170;SDS011;10743;52.160;20.910;2023-07-31T06:19:38;5.00;;;2.42;;
21170;SDS011;10743;52.160;20.910;2023-07-31T06:22:05;7.25;;;2.22;;
21170;SDS011;10743;52.160;20.910;2023-07-31T06:24:32;7.03;;;2.70;;
21170;SDS011;10743;52.160;20.910;2023-07-31T06:26:59;2.67;;;1.98;;
21170;SDS011;10743;52.160;20.910;2023-07-31T06:29:29;6.53;;;2.03;;
21170;SDS011;10743;52.160;20.910;2023-07-31T06:31:56;4.07;;;2.00;;
21170;SDS011;10743;52.160;20.910;2023-07-31T06:34:24;7.68;;;2.15;;
21170;SDS011;10743;52.160;20.910;2023-07-31T06:36:51;2.95;;;2.00;;
21170;SDS011;10743;52.160;20.910;2023-07-31T06:39:18;3.97;;;2.08;;
21170;SDS011;10743;52.160;20.910;2023-07-31T06:41:45;5.10;;;2.30;;
21170;SDS011;10743;52.160;20.910;2023-07-31T06:44:13;5.22;;;2.53;;
21170;SDS011;10743;52.160;20.910;2023-07-31T06:46:40;3.35;;;1.98;;
21170;SDS011;10743;52.160;20.910;2023-07-31T06:49:07;9.02;;;2.60;;
21170;SDS011;10743;52.160;20.910;2023-07-31T06:51:34;4.32;;;2.25;;
21170;SDS011;10743;52.160;20.910;2023-07-31T06:54:02;5.45;;;2.30;;
21170;SDS011;10743;52.160;20.910;2023-07-31T06:56:29;4.22;;;2.35;;
21170;SDS011;10743;52.160;20.910;2023-07-31T06:58:56;4.40;;;2.08;;
21170;SDS011;10743;52.160;20.910;2023-07-31T07:01:23;4.82;;;2.10;;
21170;SDS011;10743;52.160;20.910;2023-07-31T07:03:51;3.65;;;2.13;;
21170;SDS011;10743;52.160;20.910;2023-07-31T07:06:18;2.80;;;1.98;;
21170;SDS011;10743;52.160;20.910;2023-07-31T07:08:45;4.80;;;2.17;;
21170;SDS011;10743;52.160;20.910;2023-07-31T07:11:12;2.10;;;1.90;;
21170;SDS011;10743;52.160;20.910;2023-07-31T07:13:39;5.97;;;2.55;;
21170;SDS011;10743;52.160;20.910;2023-07-31T07:16:06;3.95;;;2.10;;
21170;SDS011;10743;52.160;20.910;2023-07-31T07:18:34;3.97;;;2.15;;
21170;SDS011;10743;52.160;20.910;2023-07-31T07:21:04;3.60;;;2.10;;
21170;SDS011;10743;52.160;20.910;2023-07-31T07:23:31;3.47;;;2.10;;
21170;SDS011;10743;52.160;20.910;2023-07-31T07:25:59;3.80;;;2.22;;
21170;SDS011;10743;52.160;20.910;2023-07-31T07:28:26;6.65;;;2.40;;
21170;SDS011;10743;52.160;20.910;2023-07-31T07:30:55;3.13;;;2.53;;
21170;SDS011;10743;52.160;20.910;2023-07-31T07:33:22;4.63;;;2.28;;
21170;SDS011;10743;52.160;20.910;2023-07-31T07:35:49;9.55;;;2.50;;
21170;SDS011;10743;52.160;20.910;2023-07-31T07:38:16;5.75;;;2.40;;
21170;SDS011;10743;52.160;20.910;2023-07-31T07:40:45;3.95;;;2.40;;
21170;SDS011;10743;52.160;20.910;2023-07-31T07:43:16;5.85;;;2.85;;
21170;SDS011;10743;52.160;20.910;2023-07-31T07:45:43;3.30;;;2.35;;
21170;SDS011;10743;52.160;20.910;2023-07-31T07:48:10;5.32;;;2.00;;
21170;SDS011;10743;52.160;20.910;2023-07-31T07:50:38;6.75;;;2.55;;
21170;SDS011;10743;52.160;20.910;2023-07-31T07:53:05;4.00;;;2.38;;
21170;SDS011;10743;52.160;20.910;2023-07-31T07:55:32;6.38;;;2.60;;
21170;SDS011;10743;52.160;20.910;2023-07-31T07:58:00;3.70;;;2.38;;
21170;SDS011;10743;52.160;20.910;2023-07-31T08:00:27;4.93;;;2.42;;
21170;SDS011;10743;52.160;20.910;2023-07-31T08:02:54;3.38;;;2.22;;
21170;SDS011;10743;52.160;20.910;2023-07-31T08:05:23;6.55;;;2.33;;
21170;SDS011;10743;52.160;20.910;2023-07-31T08:07:51;3.08;;;1.88;;
21170;SDS011;10743;52.160;20.910;2023-07-31T08:10:18;3.20;;;2.08;;
21170;SDS011;10743;52.160;20.910;2023-07-31T08:12:45;4.35;;;2.25;;
21170;SDS011;10743;52.160;20.910;2023-07-31T08:15:12;6.57;;;2.55;;
21170;SDS011;10743;52.160;20.910;2023-07-31T08:17:39;7.85;;;2.15;;
21170;SDS011;10743;52.160;20.910;2023-07-31T08:20:07;4.47;;;2.33;;
21170;SDS011;10743;52.160;20.910;2023-07-31T08:22:35;5.28;;;1.83;;
21170;SDS011;10743;52.160;20.910;2023-07-31T08:25:02;3.53;;;1.90;;
21170;SDS011;10743;52.160;20.910;2023-07-31T08:27:30;5.65;;;2.20;;
21170;SDS011;10743;52.160;20.910;2023-07-31T08:29:58;6.05;;;1.92;;
21170;SDS011;10743;52.160;20.910;2023-07-31T08:32:25;4.57;;;2.17;;
21170;SDS011;10743;52.160;20.910;2023-07-31T08:34:52;5.45;;;2.35;;
21170;SDS011;10743;52.160;20.910;2023-07-31T08:37:19;4.45;;;1.90;;
21170;SDS011;10743;52.160;20.910;2023-07-31T08:39:46;3.45;;;1.88;;
21170;SDS011;10743;52.160;20.910;2023-07-31T08:42:13;4.55;;;2.10;;
21170;SDS011;10743;52.160;20.910;2023-07-31T08:44:40;3.67;;;2.00;;
21170;SDS011;10743;52.160;20.910;2023-07-31T08:47:09;5.50;;;2.03;;
21170;SDS011;10743;52.160;20.910;2023-07-31T08:49:38;5.70;;;2.38;;
21170;SDS011;10743;52.160;20.910;2023-07-31T08:52:06;2.83;;;1.98;;
21170;SDS011;10743;52.160;20.910;2023-07-31T08:54:33;3.05;;;1.90;;
21170;SDS011;10743;52.160;20.910;2023-07-31T08:57:00;3.50;;;1.85;;
21170;SDS011;10743;52.160;20.910;2023-07-31T08:59:28;6.05;;;2.10;;
21170;SDS011;10743;52.160;20.910;2023-07-31T09:01:57;6.38;;;2.30;;
21170;SDS011;10743;52.160;20.910;2023-07-31T09:04:33;6.13;;;2.10;;
21170;SDS011;10743;52.160;20.910;2023-07-31T09:07:01;3.13;;;1.88;;
21170;SDS011;10743;52.160;20.910;2023-07-31T09:09:31;5.93;;;2.05;;
21170;SDS011;10743;52.160;20.910;2023-07-31T09:11:58;3.60;;;1.88;;
21170;SDS011;10743;52.160;20.910;2023-07-31T09:14:26;2.60;;;1.92;;
21170;SDS011;10743;52.160;20.910;2023-07-31T09:16:56;3.03;;;1.80;;
21170;SDS011;10743;52.160;20.910;2023-07-31T09:19:29;4.35;;;2.00;;
21170;SDS011;10743;52.160;20.910;2023-07-31T09:22:00;5.63;;;1.92;;
21170;SDS011;10743;52.160;20.910;2023-07-31T09:24:28;3.78;;;1.65;;
21170;SDS011;10743;52.160;20.910;2023-07-31T09:26:57;2.80;;;1.75;;
21170;SDS011;10743;52.160;20.910;2023-07-31T09:29:27;5.40;;;2.17;;
21170;SDS011;10743;52.160;20.910;2023-07-31T09:31:56;4.35;;;2.00;;
21170;SDS011;10743;52.160;20.910;2023-07-31T09:34:28;4.85;;;1.95;;
21170;SDS011;10743;52.160;20.910;2023-07-31T09:37:02;3.58;;;2.25;;
21170;SDS011;10743;52.160;20.910;2023-07-31T09:39:31;3.90;;;1.75;;
21170;SDS011;10743;52.160;20.910;2023-07-31T09:41:58;3.92;;;1.90;;
21170;SDS011;10743;52.160;20.910;2023-07-31T09:44:43;4.35;;;2.15;;
21170;SDS011;10743;52.160;20.910;2023-07-31T09:47:20;3.25;;;1.90;;
21170;SDS011;10743;52.160;20.910;2023-07-31T09:49:51;3.35;;;1.98;;
21170;SDS011;10743;52.160;20.910;2023-07-31T09:52:18;3.50;;;1.92;;
21170;SDS011;10743;52.160;20.910;2023-07-31T09:54:45;3.90;;;1.90;;
21170;SDS011;10743;52.160;20.910;2023-07-31T09:57:12;3.90;;;2.13;;
21170;SDS011;10743;52.160;20.910;2023-07-31T09:59:43;4.15;;;1.85;;
21170;SDS011;10743;52.160;20.910;2023-07-31T10:02:14;3.95;;;1.73;;
21170;SDS011;10743;52.160;20.910;2023-07-31T10:04:49;2.33;;;1.60;;
21170;SDS011;10743;52.160;20.910;2023-07-31T10:07:17;3.22;;;1.63;;
21170;SDS011;10743;52.160;20.910;2023-07-31T10:09:46;2.78;;;1.35;;
21170;SDS011;10743;52.160;20.910;2023-07-31T10:12:14;3.72;;;1.63;;
21170;SDS011;10743;52.160;20.910;2023-07-31T10:14:45;2.55;;;1.40;;
21170;SDS011;10743;52.160;20.910;2023-07-31T10:17:12;4.45;;;1.42;;
21170;SDS011;10743;52.160;20.910;2023-07-31T10:19:41;2.72;;;1.73;;
21170;SDS011;10743;52.160;20.910;2023-07-31T10:22:08;3.75;;;1.65;;
21170;SDS011;10743;52.160;20.910;2023-07-31T10:24:39;3.72;;;1.30;;
21170;SDS011;10743;52.160;20.910;2023-07-31T10:27:08;2.67;;;1.27;;
21170;SDS011;10743;52.160;20.910;2023-07-31T10:29:39;2.53;;;1.00;;
21170;SDS011;10743;52.160;20.910;2023-07-31T10:32:10;2.28;;;1.25;;
21170;SDS011;10743;52.160;20.910;2023-07-31T10:34:38;5.10;;;1.30;;
21170;SDS011;10743;52.160;20.910;2023-07-31T10:37:19;2.85;;;1.05;;
21170;SDS011;10743;52.160;20.910;2023-07-31T10:42:48;4.72;;;1.80;;
21170;SDS011;10743;52.160;20.910;2023-07-31T10:45:32;2.70;;;1.17;;
21170;SDS011;10743;52.160;20.910;2023-07-31T10:48:07;5.05;;;1.60;;
21170;SDS011;10743;52.160;20.910;2023-07-31T10:51:02;3.50;;;1.33;;
21170;SDS011;10743;52.160;20.910;2023-07-31T10:53:35;5.65;;;1.42;;
21170;SDS011;10743;52.160;20.910;2023-07-31T10:56:07;1.45;;;0.95;;
21170;SDS011;10743;52.160;20.910;2023-07-31T10:58:37;1.92;;;1.10;;
21170;SDS011;10743;52.160;20.910;2023-07-31T11:01:05;5.65;;;1.20;;
21170;SDS011;10743;52.160;20.910;2023-07-31T11:03:49;2.05;;;1.40;;
21170;SDS011;10743;52.160;20.910;2023-07-31T11:06:20;3.47;;;1.33;;
21170;SDS011;10743;52.160;20.910;2023-07-31T11:08:48;3.30;;;1.42;;
21170;SDS011;10743;52.160;20.910;2023-07-31T11:11:17;3.58;;;1.33;;
21170;SDS011;10743;52.160;20.910;2023-07-31T11:13:46;2.97;;;1.60;;
21170;SDS011;10743;52.160;20.910;2023-07-31T11:16:16;1.48;;;1.10;;
21170;SDS011;10743;52.160;20.910;2023-07-31T11:18:46;2.50;;;1.40;;
21170;SDS011;10743;52.160;20.910;2023-07-31T11:21:15;2.88;;;1.30;;
21170;SDS011;10743;52.160;20.910;2023-07-31T11:23:45;2.97;;;1.35;;
21170;SDS011;10743;52.160;20.910;2023-07-31T11:26:13;3.22;;;1.30;;
21170;SDS011;10743;52.160;20.910;2023-07-31T11:28:41;3.47;;;1.30;;
21170;SDS011;10743;52.160;20.910;2023-07-31T11:31:11;3.00;;;1.45;;
21170;SDS011;10743;52.160;20.910;2023-07-31T11:33:38;2.80;;;1.42;;
21170;SDS011;10743;52.160;20.910;2023-07-31T11:36:05;3.50;;;1.30;;
21170;SDS011;10743;52.160;20.910;2023-07-31T11:38:44;3.88;;;1.63;;
21170;SDS011;10743;52.160;20.910;2023-07-31T11:41:13;2.70;;;1.63;;
21170;SDS011;10743;52.160;20.910;2023-07-31T11:43:43;4.07;;;1.40;;
21170;SDS011;10743;52.160;20.910;2023-07-31T11:46:11;3.00;;;1.67;;
21170;SDS011;10743;52.160;20.910;2023-07-31T11:48:41;2.38;;;1.48;;
21170;SDS011;10743;52.160;20.910;2023-07-31T11:51:10;3.42;;;1.45;;
21170;SDS011;10743;52.160;20.910;2023-07-31T11:56:19;4.22;;;2.10;;
21170;SDS011;10743;52.160;20.910;2023-07-31T11:58:48;3.10;;;1.58;;
21170;SDS011;10743;52.160;20.910;2023-07-31T12:01:20;3.13;;;1.67;;
21170;SDS011;10743;52.160;20.910;2023-07-31T12:03:51;3.40;;;1.50;;
21170;SDS011;10743;52.160;20.910;2023-07-31T12:06:19;3.35;;;1.90;;
21170;SDS011;10743;52.160;20.910;2023-07-31T12:08:49;1.80;;;1.30;;
21170;SDS011;10743;52.160;20.910;2023-07-31T12:11:16;3.20;;;1.40;;
21170;SDS011;10743;52.160;20.910;2023-07-31T12:13:44;4.15;;;2.00;;
21170;SDS011;10743;52.160;20.910;2023-07-31T12:16:11;4.18;;;1.60;;
21170;SDS011;10743;52.160;20.910;2023-07-31T12:18:38;4.93;;;1.67;;
21170;SDS011;10743;52.160;20.910;2023-07-31T12:21:07;4.55;;;1.80;;
21170;SDS011;10743;52.160;20.910;2023-07-31T12:23:36;3.55;;;1.45;;
21170;SDS011;10743;52.160;20.910;2023-07-31T12:26:04;2.90;;;1.50;;
21170;SDS011;10743;52.160;20.910;2023-07-31T12:28:49;2.88;;;1.58;;
21170;SDS011;10743;52.160;20.910;2023-07-31T12:31:21;3.90;;;1.65;;
21170;SDS011;10743;52.160;20.910;2023-07-31T12:33:49;3.67;;;1.40;;
21170;SDS011;10743;52.160;20.910;2023-07-31T12:36:18;3.83;;;1.50;;
21170;SDS011;10743;52.160;20.910;2023-07-31T12:38:49;4.60;;;1.45;;
21170;SDS011;10743;52.160;20.910;2023-07-31T12:41:17;5.13;;;1.50;;
21170;SDS011;10743;52.160;20.910;2023-07-31T12:43:45;3.47;;;1.50;;
21170;SDS011;10743;52.160;20.910;2023-07-31T12:46:12;4.60;;;1.45;;
21170;SDS011;10743;52.160;20.910;2023-07-31T12:48:40;4.47;;;1.35;;
21170;SDS011;10743;52.160;20.910;2023-07-31T12:51:07;4.05;;;1.30;;
21170;SDS011;10743;52.160;20.910;2023-07-31T12:53:35;2.85;;;1.65;;
21170;SDS011;10743;52.160;20.910;2023-07-31T12:56:02;3.65;;;1.88;;
21170;SDS011;10743;52.160;20.910;2023-07-31T12:58:29;1.88;;;1.40;;
21170;SDS011;10743;52.160;20.910;2023-07-31T13:00:57;3.92;;;1.35;;
21170;SDS011;10743;52.160;20.910;2023-07-31T13:03:24;3.92;;;1.33;;
21170;SDS011;10743;52.160;20.910;2023-07-31T13:05:51;5.13;;;1.90;;
21170;SDS011;10743;52.160;20.910;2023-07-31T13:08:19;3.05;;;1.42;;
21170;SDS011;10743;52.160;20.910;2023-07-31T13:10:46;3.45;;;1.40;;
21170;SDS011;10743;52.160;20.910;2023-07-31T13:13:14;3.17;;;1.48;;
21170;SDS011;10743;52.160;20.910;2023-07-31T13:15:41;4.55;;;1.40;;
21170;SDS011;10743;52.160;20.910;2023-07-31T13:18:08;3.05;;;1.67;;
21170;SDS011;10743;52.160;20.910;2023-07-31T13:20:35;3.35;;;1.50;;
21170;SDS011;10743;52.160;20.910;2023-07-31T13:23:02;6.07;;;2.42;;
21170;SDS011;10743;52.160;20.910;2023-07-31T13:25:29;7.78;;;2.55;;
21170;SDS011;10743;52.160;20.910;2023-07-31T13:27:57;6.70;;;3.28;;
21170;SDS011;10743;52.160;20.910;2023-07-31T13:30:28;9.65;;;4.32;;
21170;SDS011;10743;52.160;20.910;2023-07-31T13:32:55;14.15;;;7.00;;
21170;SDS011;10743;52.160;20.910;2023-07-31T13:35:22;11.02;;;5.25;;
21170;SDS011;10743;52.160;20.910;2023-07-31T13:37:49;8.00;;;3.90;;
21170;SDS011;10743;52.160;20.910;2023-07-31T13:40:16;10.80;;;4.57;;
21170;SDS011;10743;52.160;20.910;2023-07-31T13:42:44;6.60;;;3.17;;
21170;SDS011;10743;52.160;20.910;2023-07-31T13:45:12;7.18;;;3.70;;
21170;SDS011;10743;52.160;20.910;2023-07-31T13:47:39;5.00;;;2.90;;
21170;SDS011;10743;52.160;20.910;2023-07-31T13:50:06;8.32;;;4.38;;
21170;SDS011;10743;52.160;20.910;2023-07-31T13:52:34;5.47;;;3.72;;
21170;SDS011;10743;52.160;20.910;2023-07-31T13:55:01;11.68;;;4.40;;
21170;SDS011;10743;52.160;20.910;2023-07-31T13:57:28;9.10;;;4.47;;
21170;SDS011;10743;52.160;20.910;2023-07-31T13:59:55;5.53;;;3.72;;
21170;SDS011;10743;52.160;20.910;2023-07-31T14:02:22;7.93;;;3.50;;
21170;SDS011;10743;52.160;20.910;2023-07-31T14:04:50;5.22;;;2.72;;
21170;SDS011;10743;52.160;20.910;2023-07-31T14:07:17;4.50;;;2.63;;
21170;SDS011;10743;52.160;20.910;2023-07-31T14:09:44;5.43;;;2.15;;
21170;SDS011;10743;52.160;20.910;2023-07-31T14:12:11;3.50;;;2.20;;
21170;SDS011;10743;52.160;20.910;2023-07-31T14:14:47;3.88;;;1.85;;
21170;SDS011;10743;52.160;20.910;2023-07-31T14:17:14;2.78;;;1.67;;
21170;SDS011;10743;52.160;20.910;2023-07-31T14:19:43;4.68;;;2.20;;
21170;SDS011;10743;52.160;20.910;2023-07-31T14:22:10;4.13;;;1.50;;
21170;SDS011;10743;52.160;20.910;2023-07-31T14:24:37;3.90;;;1.75;;
21170;SDS011;10743;52.160;20.910;2023-07-31T14:27:05;5.30;;;1.60;;
21170;SDS011;10743;52.160;20.910;2023-07-31T14:29:32;6.53;;;1.70;;
21170;SDS011;10743;52.160;20.910;2023-07-31T14:31:59;7.13;;;1.65;;
21170;SDS011;10743;52.160;20.910;2023-07-31T14:34:27;5.63;;;1.50;;
21170;SDS011;10743;52.160;20.910;2023-07-31T14:36:54;5.90;;;2.25;;
21170;SDS011;10743;52.160;20.910;2023-07-31T14:39:21;4.70;;;1.67;;
21170;SDS011;10743;52.160;20.910;2023-07-31T14:41:48;3.38;;;2.20;;
21170;SDS011;10743;52.160;20.910;2023-07-31T14:44:15;3.80;;;1.60;;
21170;SDS011;10743;52.160;20.910;2023-07-31T14:46:42;3.38;;;1.63;;
21170;SDS011;10743;52.160;20.910;2023-07-31T14:49:09;3.53;;;1.63;;